Time;durP1;ratioP1;P1;durP2;ratioP2;P2;SDS_P1;SDS_P2;PMS_P1;PMS_P2;Temp;Humidity;BMP_temperature;BMP_pressure;BME280_temperature;BME280_humidity;BME280_pressure;Samples;Min_cycle;Max_cycle;Signal;HPM_P1;HPM_P2
2021/11/07 00:04:43;;;;;;;;;;;;;;;22.25;32.02;98957.56;5039178;28;1156;-77
2021/11/07 00:07:20;;;;;;;;;;;;;;;22.33;31.62;98959.09;5040745;28;862;-77
2021/11/07 00:12:40;;;;;;;;;;;;;;;22.28;31.87;98953.88;4979073;28;989;-77
2021/11/07 00:15:06;;;;;;;;;;;;;;;22.11;32.21;98954.94;4939648;29;923;-77
2021/11/07 00:17:33;;;;;;;;;;;;;;;22.06;31.99;98952.53;4902338;29;978;-77
2021/11/07 00:20:06;;;;;;;;;;;;;;;22.04;32.35;98955.00;4901166;29;1981;-77
2021/11/07 00:38:04;;;;;;;;;;;;;;;22.07;31.47;98959.81;4885751;29;1906;-77
2021/11/07 00:43:11;;;;;;;;;;;;;;;22.10;31.50;98944.78;4901135;29;1041;-77
2021/11/07 00:45:44;;;;;;;;;;;;;;;22.16;31.22;98954.44;4908121;29;938;-77
2021/11/07 00:48:23;;;;;;;;;;;;;;;21.78;31.85;98948.84;4924961;29;971;-77
2021/11/07 00:56:00;;;;;;;;;;;;;;;22.10;31.42;98941.97;4864282;29;1082;-77
2021/11/07 00:58:35;;;;;;;;;;;;;;;22.22;31.04;98938.56;4843759;29;1998;-77
2021/11/07 01:01:04;;;;;;;;;;;;;;;22.13;31.22;98934.69;4828128;29;997;-77
2021/11/07 01:03:29;;;;;;;;;;;;;;;22.30;30.63;98931.56;4826763;29;1006;-78
2021/11/07 01:05:55;;;;;;;;;;;;;;;22.01;31.19;98933.16;4830274;29;1259;-77
2021/11/07 01:08:21;;;;;;;;;;;;;;;22.18;31.11;98935.00;4827051;29;881;-77
2021/11/07 01:10:46;;;;;;;;;;;;;;;22.26;31.05;98930.81;4812488;29;884;-77
2021/11/07 01:13:12;;;;;;;;;;;;;;;22.23;30.95;98930.88;4807125;29;1073;-77
2021/11/07 01:15:37;;;;;;;;;;;;;;;22.11;31.25;98923.75;4809925;29;874;-77
2021/11/07 01:18:03;;;;;;;;;;;;;;;21.93;31.44;98920.34;4810874;29;1955;-77
2021/11/07 01:20:30;;;;;;;;;;;;;;;22.18;30.78;98918.00;4846628;29;1028;-77
2021/11/07 01:25:22;;;;;;;;;;;;;;;22.28;30.98;98914.19;4861655;29;968;-77
2021/11/07 01:27:48;;;;;;;;;;;;;;;22.29;30.62;98924.31;4863298;29;856;-77
2021/11/07 01:30:16;;;;;;;;;;;;;;;22.26;30.75;98918.69;4879369;29;874;-77
2021/11/07 01:32:46;;;;;;;;;;;;;;;22.12;30.77;98928.19;4897963;29;911;-77
2021/11/07 01:38:11;;;;;;;;;;;;;;;22.50;31.06;98919.53;4900342;29;972;-77
2021/11/07 01:40:42;;;;;;;;;;;;;;;22.54;32.20;98920.28;4901072;29;787;-77
2021/11/07 01:43:07;;;;;;;;;;;;;;;22.39;33.15;98916.06;4899286;29;889;-77
2021/11/07 01:45:40;;;;;;;;;;;;;;;22.28;34.01;98919.88;4900642;29;1135;-77
2021/11/07 01:50:39;;;;;;;;;;;;;;;22.18;32.84;98917.19;4906523;29;1323;-77
2021/11/07 01:53:10;;;;;;;;;;;;;;;22.38;32.40;98905.94;4925673;29;987;-78
2021/11/07 01:55:35;;;;;;;;;;;;;;;22.25;32.12;98909.38;4958159;29;840;-77
2021/11/07 01:58:02;;;;;;;;;;;;;;;22.27;32.42;98912.56;4958344;29;1903;-77
2021/11/07 02:00:28;;;;;;;;;;;;;;;22.22;32.07;98913.06;4958986;29;844;-77
2021/11/07 02:02:55;;;;;;;;;;;;;;;22.18;32.30;98917.19;4958299;29;879;-77
2021/11/07 02:05:20;;;;;;;;;;;;;;;22.13;32.30;98918.47;4958174;29;1137;-78
2021/11/07 02:07:46;;;;;;;;;;;;;;;22.05;32.22;98916.91;4955331;29;883;-78
2021/11/07 02:10:12;;;;;;;;;;;;;;;22.27;31.69;98912.56;4938741;29;930;-77
2021/11/07 02:12:40;;;;;;;;;;;;;;;22.19;32.03;98916.75;4937961;29;946;-77
2021/11/07 02:15:06;;;;;;;;;;;;;;;22.29;31.54;98909.34;4937869;29;716;-77
2021/11/07 02:17:32;;;;;;;;;;;;;;;22.22;31.72;98903.75;4938056;29;886;-77
2021/11/07 02:19:58;;;;;;;;;;;;;;;22.30;31.42;98906.06;4899279;29;1907;-77
2021/11/07 02:22:23;;;;;;;;;;;;;;;22.17;31.50;98913.53;4882255;29;972;-77
2021/11/07 02:24:49;;;;;;;;;;;;;;;22.20;31.55;98912.69;4912782;29;957;-77
2021/11/07 02:27:15;;;;;;;;;;;;;;;22.24;31.28;98913.44;4922710;29;763;-76
2021/11/07 02:29:41;;;;;;;;;;;;;;;21.96;31.98;98908.13;4921578;29;777;-76
2021/11/07 02:32:07;;;;;;;;;;;;;;;22.12;31.53;98908.34;4922607;29;1003;-77
2021/11/07 02:34:32;;;;;;;;;;;;;;;22.16;31.39;98911.13;4921797;29;933;-76
2021/11/07 02:36:57;;;;;;;;;;;;;;;22.08;31.58;98904.75;4923218;29;970;-77
2021/11/07 02:39:23;;;;;;;;;;;;;;;21.85;31.66;98908.28;4921593;29;1979;-77
2021/11/07 02:41:48;;;;;;;;;;;;;;;22.20;31.00;98917.56;4884466;29;1004;-77
2021/11/07 02:44:30;;;;;;;;;;;;;;;22.13;31.35;98912.00;4883223;29;1111;-77
2021/11/07 02:46:56;;;;;;;;;;;;;;;21.93;31.43;98909.00;4884669;29;984;-77
2021/11/07 02:49:23;;;;;;;;;;;;;;;21.79;31.76;98910.78;4884447;29;794;-77
2021/11/07 02:51:48;;;;;;;;;;;;;;;22.09;31.26;98914.84;4885337;29;853;-78
2021/11/07 02:54:14;;;;;;;;;;;;;;;22.08;30.99;98918.91;4885548;29;837;-77
2021/11/07 02:56:39;;;;;;;;;;;;;;;22.08;31.22;98910.41;4898240;29;991;-78
2021/11/07 02:59:07;;;;;;;;;;;;;;;22.33;30.46;98921.44;4932216;28;1986;-77
2021/11/07 03:01:32;;;;;;;;;;;;;;;22.09;31.05;98912.00;4980212;28;843;-77
2021/11/07 03:04:06;;;;;;;;;;;;;;;22.16;31.12;98917.59;4963512;28;912;-77
2021/11/07 03:06:32;;;;;;;;;;;;;;;22.18;30.64;98920.81;4965054;28;1100;-77
2021/11/07 03:08:58;;;;;;;;;;;;;;;22.14;30.81;98930.59;4979524;28;863;-77
2021/11/07 03:11:23;;;;;;;;;;;;;;;22.04;30.97;98926.66;4964429;28;968;-77
2021/11/07 03:13:50;;;;;;;;;;;;;;;22.12;30.62;98916.84;4979121;28;1017;-78
2021/11/07 03:16:16;;;;;;;;;;;;;;;22.26;30.63;98922.31;4980235;28;987;-77
2021/11/07 03:18:41;;;;;;;;;;;;;;;22.19;30.48;98918.78;4976749;28;1899;-78
2021/11/07 03:21:07;;;;;;;;;;;;;;;22.17;31.20;98919.19;5000256;28;928;-77
2021/11/07 03:23:36;;;;;;;;;;;;;;;22.28;32.62;98919.88;4998100;28;783;-77
2021/11/07 03:26:14;;;;;;;;;;;;;;;22.40;32.94;98926.19;5000748;28;1026;-78
2021/11/07 03:28:41;;;;;;;;;;;;;;;22.30;33.62;98917.41;4997507;28;842;-77
2021/11/07 03:31:18;;;;;;;;;;;;;;;22.18;32.95;98920.81;5000314;28;848;-77
2021/11/07 03:33:53;;;;;;;;;;;;;;;22.22;32.67;98924.41;4977732;28;949;-77
2021/11/07 03:36:20;;;;;;;;;;;;;;;20.74;32.04;98677.56;4978245;28;954;-77
2021/11/07 03:38:46;;;;;;;;;;;;;;;22.31;31.93;98913.31;4977697;28;1970;-77
2021/11/07 03:41:12;;;;;;;;;;;;;;;21.90;32.49;98901.34;4979076;28;975;-76
2021/11/07 03:43:37;;;;;;;;;;;;;;;22.17;32.15;98902.19;4977638;28;772;-77
2021/11/07 03:46:03;;;;;;;;;;;;;;;22.05;32.49;98905.59;4980440;28;791;-77
2021/11/07 03:48:28;;;;;;;;;;;;;;;22.14;32.24;98907.94;4977458;28;922;-79
2021/11/07 03:50:54;;;;;;;;;;;;;;;22.12;32.05;98911.16;4979759;28;919;-78
2021/11/07 03:53:19;;;;;;;;;;;;;;;22.10;32.09;98913.63;5016696;28;851;-77
2021/11/07 03:55:45;;;;;;;;;;;;;;;22.07;32.01;98908.78;5019169;28;712;-78
2021/11/07 03:58:10;;;;;;;;;;;;;;;22.30;31.54;98910.94;5017192;28;1981;-78
2021/11/07 04:00:36;;;;;;;;;;;;;;;22.32;31.29;98908.47;5019071;28;843;-78
2021/11/07 04:03:04;;;;;;;;;;;;;;;22.27;31.58;98906.91;5017833;28;826;-78
2021/11/07 04:05:30;;;;;;;;;;;;;;;22.28;31.25;98908.53;5036915;28;1186;-78
2021/11/07 04:07:56;;;;;;;;;;;;;;;22.19;31.53;98910.28;5039494;28;835;-78
2021/11/07 04:10:23;;;;;;;;;;;;;;;22.02;31.62;98901.59;5040113;28;866;-78
2021/11/07 04:12:48;;;;;;;;;;;;;;;22.20;31.28;98901.34;5040068;28;727;-78
2021/11/07 04:15:14;;;;;;;;;;;;;;;22.15;31.64;98899.00;5039054;28;759;-77
2021/11/07 04:17:39;;;;;;;;;;;;;;;22.29;31.21;98904.47;5040167;28;851;-77
2021/11/07 04:20:05;;;;;;;;;;;;;;;22.20;31.30;98901.34;5003952;28;1886;-77
2021/11/07 04:22:30;;;;;;;;;;;;;;;22.28;31.09;98891.53;5040211;28;750;-78
2021/11/07 04:24:56;;;;;;;;;;;;;;;22.12;31.28;98893.38;5038748;28;735;-78
2021/11/07 04:27:23;;;;;;;;;;;;;;;22.42;30.78;98884.81;5040948;28;754;-78
2021/11/07 04:29:48;;;;;;;;;;;;;;;22.21;31.27;98902.94;5039040;28;775;-78
2021/11/07 04:32:14;;;;;;;;;;;;;;;22.34;30.88;98895.47;5040995;28;778;-78
2021/11/07 04:34:39;;;;;;;;;;;;;;;22.03;31.64;98893.88;5038834;28;740;-78
2021/11/07 04:37:05;;;;;;;;;;;;;;;22.12;31.09;98901.88;5040492;28;747;-78
2021/11/07 04:39:31;;;;;;;;;;;;;;;22.05;31.03;98888.59;5038951;28;1903;-78
2021/11/07 04:41:56;;;;;;;;;;;;;;;22.23;30.77;98900.50;5040653;28;887;-77
2021/11/07 04:44:22;;;;;;;;;;;;;;;22.01;30.93;98893.50;4996398;28;946;-77
2021/11/07 04:46:47;;;;;;;;;;;;;;;21.96;30.62;98893.97;4998336;28;885;-78
2021/11/07 04:49:13;;;;;;;;;;;;;;;21.74;31.35;98890.63;4965039;28;1028;-78
2021/11/07 04:51:38;;;;;;;;;;;;;;;21.99;30.74;98890.28;4998372;28;924;-78
2021/11/07 04:54:03;;;;;;;;;;;;;;;21.99;30.48;98896.75;4997205;28;1084;-78
2021/11/07 04:56:29;;;;;;;;;;;;;;;22.12;31.62;98894.16;4998725;28;771;-79
2021/11/07 04:58:55;;;;;;;;;;;;;;;22.26;32.60;98898.84;4977134;28;1898;-78
2021/11/07 05:01:21;;;;;;;;;;;;;;;22.55;33.14;98885.81;4940795;29;880;-78
2021/11/07 05:03:46;;;;;;;;;;;;;;;22.37;33.42;98888.13;4938892;29;951;-77
2021/11/07 05:06:12;;;;;;;;;;;;;;;22.25;32.91;98892.38;4940157;29;1227;-77
2021/11/07 05:08:37;;;;;;;;;;;;;;;22.16;32.62;98883.59;4937751;29;758;-77
2021/11/07 05:11:03;;;;;;;;;;;;;;;22.30;32.34;98889.03;4940434;29;952;-78
2021/11/07 05:13:28;;;;;;;;;;;;;;;22.30;32.10;98882.56;4899162;29;893;-78
2021/11/07 05:15:54;;;;;;;;;;;;;;;22.26;31.83;98891.13;4930153;29;844;-77
2021/11/07 05:18:19;;;;;;;;;;;;;;;22.48;31.71;98887.94;4937598;29;1899;-77
2021/11/07 05:20:45;;;;;;;;;;;;;;;22.14;32.21;98894.56;4940547;29;938;-77
2021/11/07 05:23:11;;;;;;;;;;;;;;;22.12;32.14;98888.50;4938461;29;859;-78
2021/11/07 05:25:37;;;;;;;;;;;;;;;22.24;32.10;98887.13;4940342;29;952;-78
2021/11/07 05:28:02;;;;;;;;;;;;;;;22.18;32.10;98886.81;4938832;29;931;-78
2021/11/07 05:30:28;;;;;;;;;;;;;;;21.96;32.03;98885.47;4887529;29;962;-78
2021/11/07 05:32:53;;;;;;;;;;;;;;;22.19;31.44;98888.41;4909681;29;912;-78
2021/11/07 05:35:19;;;;;;;;;;;;;;;22.05;31.77;98877.25;4919821;29;999;-76
2021/11/07 05:37:45;;;;;;;;;;;;;;;21.97;31.61;98872.94;4920397;29;913;-77
2021/11/07 05:40:11;;;;;;;;;;;;;;;21.98;31.50;98874.53;4919111;29;1914;-77
2021/11/07 05:42:36;;;;;;;;;;;;;;;22.05;31.29;98872.38;4920050;29;893;-78
2021/11/07 05:45:02;;;;;;;;;;;;;;;22.14;30.80;98879.59;4961310;28;874;-78
2021/11/07 05:47:28;;;;;;;;;;;;;;;22.18;30.63;98881.16;4962160;28;1187;-77
2021/11/07 05:49:53;;;;;;;;;;;;;;;22.30;30.54;98877.72;4977022;28;751;-78
2021/11/07 05:52:19;;;;;;;;;;;;;;;22.06;31.65;98890.19;4978486;28;780;-76
2021/11/07 05:54:45;;;;;;;;;;;;;;;22.41;32.53;98888.06;4976786;28;996;-78
2021/11/07 05:57:10;;;;;;;;;;;;;;;22.25;33.66;98886.69;4977496;28;891;-77
2021/11/07 05:59:36;;;;;;;;;;;;;;;22.44;33.93;98892.91;4991296;28;1910;-78
2021/11/07 06:02:01;;;;;;;;;;;;;;;22.25;33.05;98898.03;4924089;29;987;-77
2021/11/07 06:04:27;;;;;;;;;;;;;;;22.20;32.75;98901.34;4922650;29;1218;-77
2021/11/07 06:06:52;;;;;;;;;;;;;;;22.14;32.65;98891.72;4927463;29;944;-78
2021/11/07 06:09:18;;;;;;;;;;;;;;;22.24;32.33;98878.63;4961737;29;805;-78
2021/11/07 06:11:44;;;;;;;;;;;;;;;22.32;32.15;98865.94;4905496;29;964;-78
2021/11/07 06:14:10;;;;;;;;;;;;;;;22.32;31.94;98869.56;4904091;29;895;-78
2021/11/07 06:16:35;;;;;;;;;;;;;;;22.35;31.95;98868.72;4905851;29;914;-77
2021/11/07 06:19:00;;;;;;;;;;;;;;;22.25;31.91;98872.53;4903967;29;1978;-78
2021/11/07 06:21:28;;;;;;;;;;;;;;;22.15;32.01;98869.84;4905014;29;985;-77
2021/11/07 06:23:55;;;;;;;;;;;;;;;21.74;32.66;98871.59;4884513;29;879;-77
2021/11/07 06:26:21;;;;;;;;;;;;;;;22.19;31.88;98876.28;4886590;29;924;-78
2021/11/07 06:28:46;;;;;;;;;;;;;;;22.19;31.93;98865.72;4884841;29;1207;-78
2021/11/07 06:31:12;;;;;;;;;;;;;;;22.11;31.82;98875.56;4886853;29;1460;-78
2021/11/07 06:33:38;;;;;;;;;;;;;;;22.26;31.49;98865.63;4912726;29;858;-78
2021/11/07 06:36:03;;;;;;;;;;;;;;;22.16;31.67;98860.91;4924445;29;958;-77
2021/11/07 06:38:30;;;;;;;;;;;;;;;22.13;31.43;98855.31;4924907;29;1976;-77
2021/11/07 06:40:55;;;;;;;;;;;;;;;22.05;31.70;98843.25;4962769;29;860;-77
2021/11/07 06:43:21;;;;;;;;;;;;;;;22.19;31.20;98847.94;4988057;28;945;-77
2021/11/07 06:45:46;;;;;;;;;;;;;;;22.23;31.11;98843.81;5020731;28;846;-77
2021/11/07 06:48:12;;;;;;;;;;;;;;;22.31;30.99;98838.81;5018632;28;940;-78
2021/11/07 06:50:37;;;;;;;;;;;;;;;22.27;31.72;98841.69;4980884;28;881;-78
2021/11/07 06:53:03;;;;;;;;;;;;;;;22.45;32.52;98849.13;4980028;28;890;-79
2021/11/07 06:55:29;;;;;;;;;;;;;;;22.47;33.44;98855.16;4980612;28;977;-78
2021/11/07 06:57:54;;;;;;;;;;;;;;;22.36;33.39;98850.47;4980455;28;794;-78
2021/11/07 07:00:21;;;;;;;;;;;;;;;22.23;33.14;98860.81;4979716;28;1902;-78
2021/11/07 07:02:46;;;;;;;;;;;;;;;22.19;32.70;98856.44;4979941;28;1081;-77
2021/11/07 07:05:12;;;;;;;;;;;;;;;22.16;32.29;98854.44;4979932;28;1449;-77
2021/11/07 07:07:42;;;;;;;;;;;;;;;22.25;31.77;98861.19;4980025;28;1005;-78
2021/11/07 07:10:11;;;;;;;;;;;;;;;22.10;32.16;98856.94;4979219;28;892;-78
2021/11/07 07:12:48;;;;;;;;;;;;;;;22.14;32.15;98869.06;4960184;28;920;-78
2021/11/07 07:15:21;;;;;;;;;;;;;;;22.20;32.07;98867.34;4960636;29;947;-78
2021/11/07 07:20:44;;;;;;;;;;;;;;;22.04;32.24;98873.63;4960630;29;1914;-78
2021/11/07 07:23:26;;;;;;;;;;;;;;;22.14;32.10;98856.91;4979074;28;876;-78
2021/11/07 07:33:51;;;;;;;;;;;;;;;22.07;31.52;98846.44;4998377;28;881;-77
2021/11/07 07:36:17;;;;;;;;;;;;;;;22.21;31.46;98846.25;5019610;28;866;-77
2021/11/07 07:38:42;;;;;;;;;;;;;;;22.07;31.37;98840.75;5017530;28;1973;-78
2021/11/07 07:41:08;;;;;;;;;;;;;;;22.14;31.50;98834.25;5019796;28;918;-78
2021/11/07 07:43:34;;;;;;;;;;;;;;;22.11;31.13;98824.53;5027950;28;788;-78
2021/11/07 07:46:04;;;;;;;;;;;;;;;22.02;31.21;98824.25;5042392;28;890;-77
2021/11/07 07:48:30;;;;;;;;;;;;;;;21.89;31.78;98820.41;5039883;28;821;-78
2021/11/07 07:50:56;;;;;;;;;;;;;;;22.08;31.29;98819.72;4980629;28;940;-77
2021/11/07 07:53:23;;;;;;;;;;;;;;;22.19;30.88;98828.88;4978411;28;966;-77
2021/11/07 07:55:50;;;;;;;;;;;;;;;22.03;31.34;98823.84;4961215;28;1157;-78
2021/11/07 07:58:16;;;;;;;;;;;;;;;21.59;31.67;98824.88;4958983;28;1987;-77
2021/11/07 08:00:41;;;;;;;;;;;;;;;21.80;31.60;98827.41;4960850;28;1081;-77
2021/11/07 08:03:07;;;;;;;;;;;;;;;22.26;32.44;98825.13;4959690;28;776;-79
2021/11/07 08:05:32;;;;;;;;;;;;;;;22.46;32.54;98806.16;4959667;28;1063;-77
2021/11/07 08:07:57;;;;;;;;;;;;;;;22.51;33.04;98817.00;4975304;28;941;-78
2021/11/07 08:10:23;;;;;;;;;;;;;;;22.31;33.12;98813.28;4959688;28;967;-77
2021/11/07 08:12:48;;;;;;;;;;;;;;;22.07;32.99;98801.09;4979125;28;853;-78
2021/11/07 08:15:14;;;;;;;;;;;;;;;22.27;32.03;98804.84;4978429;28;978;-78
2021/11/07 08:17:40;;;;;;;;;;;;;;;22.30;31.64;98804.00;4925318;29;1724;-78
2021/11/07 08:20:07;;;;;;;;;;;;;;;22.22;31.72;98796.03;4923635;29;1914;-78
2021/11/07 08:22:32;;;;;;;;;;;;;;;21.83;32.84;98803.88;4955340;28;942;-78
2021/11/07 08:24:58;;;;;;;;;;;;;;;22.10;32.02;98803.06;4958967;29;779;-77
2021/11/07 08:27:24;;;;;;;;;;;;;;;22.18;31.89;98813.13;4945889;29;1016;-79
2021/11/07 08:29:53;;;;;;;;;;;;;;;22.24;31.76;98817.06;4939685;29;789;-78
2021/11/07 08:32:19;;;;;;;;;;;;;;;20.76;32.10;98590.25;4945308;28;924;-78
2021/11/07 08:34:46;;;;;;;;;;;;;;;22.03;31.95;98795.50;4940004;29;1825;-78
2021/11/07 08:37:14;;;;;;;;;;;;;;;21.96;31.77;98794.78;4910001;29;969;-78
2021/11/07 08:39:47;;;;;;;;;;;;;;;22.01;32.07;98797.94;4939595;29;1974;-78
2021/11/07 08:42:32;;;;;;;;;;;;;;;22.11;31.48;98790.53;4942031;29;899;-78
2021/11/07 09:04:19;;;;;;;;;;;;;;;22.12;31.08;98780.78;4920612;29;758;-78
2021/11/07 09:09:17;;;;;;;;;;;;;;;22.01;31.02;98765.97;4939544;29;681;-78
2021/11/07 09:11:51;;;;;;;;;;;;;;;22.07;30.95;98759.41;4940825;29;867;-78
2021/11/07 09:14:17;;;;;;;;;;;;;;;22.15;30.65;98762.94;4939313;29;831;-78
2021/11/07 09:16:42;;;;;;;;;;;;;;;22.17;30.93;98759.66;4940098;29;929;-79
2021/11/07 09:19:08;;;;;;;;;;;;;;;21.91;31.36;98747.09;4939015;29;1907;-78
2021/11/07 09:21:38;;;;;;;;;;;;;;;22.11;31.16;98750.84;4961677;28;828;-78
2021/11/07 09:24:12;;;;;;;;;;;;;;;22.52;31.93;98741.22;4977544;28;858;-79
2021/11/07 09:26:42;;;;;;;;;;;;;;;22.40;32.75;98742.66;4979144;28;969;-78
2021/11/07 09:29:12;;;;;;;;;;;;;;;22.57;32.94;98726.53;4977421;28;807;-79
2021/11/07 09:36:57;;;;;;;;;;;;;;;22.21;32.49;98709.38;5043956;28;806;-78
2021/11/07 09:39:35;;;;;;;;;;;;;;;22.30;32.07;98701.94;5042682;28;1969;-77
2021/11/07 09:44:28;;;;;;;;;;;;;;;22.31;31.91;98685.72;5042666;28;841;-78
2021/11/07 09:47:00;;;;;;;;;;;;;;;22.14;31.96;98695.34;5044543;28;762;-78
2021/11/07 09:49:43;;;;;;;;;;;;;;;22.10;31.85;98703.88;5009712;28;1002;-78
2021/11/07 09:52:12;;;;;;;;;;;;;;;22.08;31.69;98695.03;5044070;28;874;-78
2021/11/07 09:54:40;;;;;;;;;;;;;;;22.00;31.99;98693.53;5042101;28;802;-78
2021/11/07 09:57:06;;;;;;;;;;;;;;;22.04;31.59;98694.28;5042541;28;1063;-78
2021/11/07 09:59:32;;;;;;;;;;;;;;;22.01;31.31;98695.13;5040923;28;1910;-78
2021/11/07 10:01:58;;;;;;;;;;;;;;;21.98;31.15;98691.13;5008573;28;915;-79
2021/11/07 10:04:27;;;;;;;;;;;;;;;21.96;30.97;98687.91;5040693;28;1189;-78
2021/11/07 10:06:57;;;;;;;;;;;;;;;22.01;31.07;98689.47;5043950;28;846;-78
2021/11/07 10:09:34;;;;;;;;;;;;;;;22.02;31.04;98677.72;5000471;28;957;-78
2021/11/07 10:12:18;;;;;;;;;;;;;;;21.96;31.57;98668.09;5001505;28;832;-78
2021/11/07 10:14:45;;;;;;;;;;;;;;;21.91;31.69;98667.78;4997202;28;1507;-78
2021/11/07 10:23:08;;;;;;;;;;;;;;;22.41;33.29;98647.84;4960917;28;993;-78
2021/11/07 10:25:39;;;;;;;;;;;;;;;22.26;32.96;98647.31;4961897;28;930;-78
2021/11/07 10:28:17;;;;;;;;;;;;;;;22.40;32.00;98645.47;4960896;29;764;-78
2021/11/07 10:30:50;;;;;;;;;;;;;;;22.08;32.14;98638.34;4962974;28;1077;-78
2021/11/07 10:33:39;;;;;;;;;;;;;;;22.19;32.08;98633.28;4960740;28;913;-77
2021/11/07 10:36:46;;;;;;;;;;;;;;;22.25;32.04;98631.56;4963316;29;961;-78
2021/11/07 10:44:38;;;;;;;;;;;;;;;22.38;31.63;98617.53;4999291;28;1024;-78
2021/11/07 10:52:22;;;;;;;;;;;;;;;22.26;31.75;98599.13;4942635;29;953;-78
2021/11/07 10:54:47;;;;;;;;;;;;;;;22.15;31.96;98609.09;4941861;29;807;-78
2021/11/07 10:57:25;;;;;;;;;;;;;;;22.36;31.68;98606.63;4973474;28;1039;-78
2021/11/07 11:00:09;;;;;;;;;;;;;;;22.25;31.65;98603.22;4999270;28;1886;-78
2021/11/07 11:02:36;;;;;;;;;;;;;;;22.23;31.66;98599.22;5000951;28;962;-78
2021/11/07 11:05:12;;;;;;;;;;;;;;;22.26;31.58;98590.63;4999258;28;1070;-77
2021/11/07 11:07:57;;;;;;;;;;;;;;;22.15;31.55;98586.41;4999951;28;782;-79
2021/11/07 11:10:28;;;;;;;;;;;;;;;22.14;31.63;98579.94;5000143;28;733;-78
2021/11/07 11:12:58;;;;;;;;;;;;;;;22.27;31.42;98583.72;4999670;28;894;-78
2021/11/07 11:15:33;;;;;;;;;;;;;;;22.29;31.09;98586.13;4983688;28;910;-78
2021/11/07 11:18:10;;;;;;;;;;;;;;;21.93;32.05;98580.34;4999138;28;777;-78
2021/11/07 11:20:54;;;;;;;;;;;;;;;22.09;31.41;98588.91;5000468;28;1906;-78
2021/11/07 11:23:46;;;;;;;;;;;;;;;21.82;31.42;98587.00;5039750;28;923;-78
2021/11/07 11:26:13;;;;;;;;;;;;;;;22.06;31.07;98573.56;5062410;28;755;-78
2021/11/07 11:29:00;;;;;;;;;;;;;;;22.16;30.82;98579.50;5059242;28;732;-78
2021/11/07 11:31:32;;;;;;;;;;;;;;;22.34;31.97;98577.91;5061844;28;767;-78
2021/11/07 11:34:01;;;;;;;;;;;;;;;22.45;32.83;98565.56;5060126;28;769;-78
2021/11/07 11:36:33;;;;;;;;;;;;;;;22.43;33.26;98579.34;5062055;28;762;-77
2021/11/07 11:39:12;;;;;;;;;;;;;;;22.33;33.17;98570.66;5058185;28;1906;-78
2021/11/07 11:44:04;;;;;;;;;;;;;;;22.19;32.27;98559.59;5058852;28;885;-77
2021/11/07 11:46:41;;;;;;;;;;;;;;;21.91;32.19;98549.56;5019101;28;1120;-78
2021/11/07 11:49:31;;;;;;;;;;;;;;;22.10;31.66;98539.50;5017494;28;1411;-77
2021/11/07 11:54:56;;;;;;;;;;;;;;;22.18;31.33;98537.38;5017550;28;798;-78
2021/11/07 12:02:51;;;;;;;;;;;;;;;22.06;31.03;98511.22;5019126;28;747;-78
2021/11/07 12:08:08;;;;;;;;;;;;;;;21.99;31.06;98493.59;5017331;28;864;-78
2021/11/07 12:10:39;;;;;;;;;;;;;;;22.14;30.65;98483.59;5002282;28;747;-78
2021/11/07 12:13:23;;;;;;;;;;;;;;;21.94;30.80;98465.75;5001379;28;993;-78
2021/11/07 12:15:50;;;;;;;;;;;;;;;21.77;31.56;98464.88;5019278;28;857;-77
2021/11/07 12:18:16;;;;;;;;;;;;;;;22.24;31.77;98454.22;5021222;28;1919;-78
2021/11/07 12:20:44;;;;;;;;;;;;;;;22.29;32.09;98456.53;5018580;28;870;-78
2021/11/07 12:23:12;;;;;;;;;;;;;;;22.28;32.78;98471.94;5000614;28;1273;-77
2021/11/07 12:25:37;;;;;;;;;;;;;;;22.16;32.27;98469.75;5018321;28;838;-79
2021/11/07 12:28:03;;;;;;;;;;;;;;;22.17;31.72;98467.72;5017900;28;1007;-78
2021/11/07 12:30:29;;;;;;;;;;;;;;;22.26;31.22;98463.06;5018239;28;907;-78
2021/11/07 12:33:11;;;;;;;;;;;;;;;21.99;31.52;98465.25;5018126;28;946;-78
2021/11/07 12:35:38;;;;;;;;;;;;;;;22.04;31.00;98467.56;5018924;28;780;-78
2021/11/07 12:40:58;;;;;;;;;;;;;;;21.87;31.25;98460.25;5018819;28;1433;-78
2021/11/07 12:43:23;;;;;;;;;;;;;;;22.04;31.44;98464.75;5016665;28;768;-79
2021/11/07 12:45:51;;;;;;;;;;;;;;;22.09;31.23;98469.91;5019492;28;755;-78
2021/11/07 12:48:35;;;;;;;;;;;;;;;21.85;31.68;98475.63;5016824;28;842;-78
2021/11/07 12:51:01;;;;;;;;;;;;;;;22.31;31.95;98459.72;5023449;28;896;-78
2021/11/07 12:53:27;;;;;;;;;;;;;;;22.22;32.92;98473.66;5035899;28;724;-78
2021/11/07 12:55:53;;;;;;;;;;;;;;;22.31;32.94;98464.59;5038657;28;958;-78
2021/11/07 12:58:18;;;;;;;;;;;;;;;22.30;32.37;98463.00;5036097;28;1910;-78
2021/11/07 13:00:44;;;;;;;;;;;;;;;22.42;32.09;98464.34;5039039;28;763;-78
2021/11/07 13:03:10;;;;;;;;;;;;;;;22.43;31.59;98460.25;5003785;28;888;-79
2021/11/07 13:05:40;;;;;;;;;;;;;;;22.29;31.60;98459.38;5021576;28;1370;-78
2021/11/07 13:08:08;;;;;;;;;;;;;;;22.07;31.93;98449.69;5020483;28;841;-78
2021/11/07 13:13:15;;;;;;;;;;;;;;;21.91;32.00;98446.78;5040467;28;888;-78
2021/11/07 13:26:22;;;;;;;;;;;;;;;22.20;31.52;98436.47;5058531;28;987;-78
2021/11/07 13:29:06;;;;;;;;;;;;;;;22.26;31.03;98431.88;5056516;28;830;-77
2021/11/07 13:31:56;;;;;;;;;;;;;;;22.20;31.11;98436.47;5058111;28;945;-77
2021/11/07 13:34:21;;;;;;;;;;;;;;;22.28;31.08;98437.94;5001154;28;1002;-78
2021/11/07 13:36:47;;;;;;;;;;;;;;;22.10;31.09;98431.81;5018443;28;953;-78
2021/11/07 13:39:20;;;;;;;;;;;;;;;22.01;31.46;98434.44;5016194;28;1914;-78
2021/11/07 13:41:50;;;;;;;;;;;;;;;21.91;31.59;98421.28;5001837;28;811;-78
2021/11/07 13:44:18;;;;;;;;;;;;;;;21.84;31.82;98414.53;5016787;28;875;-78
2021/11/07 13:46:49;;;;;;;;;;;;;;;22.08;31.09;98405.97;5018485;28;797;-78
2021/11/07 13:49:15;;;;;;;;;;;;;;;22.04;31.13;98408.06;5016128;28;822;-77
2021/11/07 13:51:49;;;;;;;;;;;;;;;22.12;31.00;98401.00;5017621;28;811;-78
2021/11/07 13:54:14;;;;;;;;;;;;;;;21.99;31.01;98398.03;5016481;28;917;-77
2021/11/07 13:56:43;;;;;;;;;;;;;;;22.39;31.87;98388.69;5018642;28;1087;-78
2021/11/07 13:59:08;;;;;;;;;;;;;;;22.43;32.66;98392.22;5016799;28;1918;-78
2021/11/07 14:01:34;;;;;;;;;;;;;;;22.44;33.02;98400.31;5001959;28;898;-78
2021/11/07 14:04:00;;;;;;;;;;;;;;;22.58;33.40;98399.94;5016288;28;724;-78
2021/11/07 14:06:32;;;;;;;;;;;;;;;22.41;33.08;98403.22;5017619;28;1553;-78
2021/11/07 14:09:01;;;;;;;;;;;;;;;22.27;33.04;98402.28;5016311;28;736;-78
2021/11/07 14:11:28;;;;;;;;;;;;;;;22.24;32.77;98397.53;5033396;28;1108;-78
2021/11/07 14:13:55;;;;;;;;;;;;;;;22.25;32.25;98398.31;5015947;28;1008;-78
2021/11/07 14:16:31;;;;;;;;;;;;;;;22.38;31.79;98392.75;5017371;28;786;-79
2021/11/07 14:18:56;;;;;;;;;;;;;;;22.17;32.30;98396.88;5016683;28;1983;-78
2021/11/07 14:21:26;;;;;;;;;;;;;;;22.08;32.29;98389.75;5002315;28;776;-78
2021/11/07 14:26:47;;;;;;;;;;;;;;;22.25;31.72;98373.59;4963114;29;936;-78
2021/11/07 14:35:02;;;;;;;;;;;;;;;22.23;31.47;98361.91;4884972;29;1057;-78
2021/11/07 14:37:26;;;;;;;;;;;;;;;22.17;31.53;98357.97;4886216;29;1028;-78
2021/11/07 14:44:53;;;;;;;;;;;;;;;22.26;30.89;98348.88;4885278;29;976;-78
2021/11/07 14:52:59;;;;;;;;;;;;;;;22.12;31.30;98332.19;4885626;29;1117;-78
2021/11/07 14:55:39;;;;;;;;;;;;;;;22.35;30.57;98341.38;4848643;29;1324;-78
2021/11/07 14:58:17;;;;;;;;;;;;;;;22.42;31.51;98326.19;4848108;29;1015;-78
2021/11/07 15:00:59;;;;;;;;;;;;;;;22.39;32.53;98317.81;4867413;29;1966;-78
2021/11/07 15:03:30;;;;;;;;;;;;;;;22.38;33.36;98327.53;4874932;29;1225;-78
2021/11/07 15:06:22;;;;;;;;;;;;;;;22.20;33.19;98323.09;4900920;29;1222;-77
2021/11/07 15:08:55;;;;;;;;;;;;;;;22.25;32.42;98331.06;4869283;29;915;-78
2021/11/07 15:24:44;;;;;;;;;;;;;;;22.17;31.93;98329.63;4884467;29;1032;-78
2021/11/07 15:27:18;;;;;;;;;;;;;;;22.24;31.79;98329.50;4834615;29;908;-77
2021/11/07 15:29:57;;;;;;;;;;;;;;;22.10;31.78;98330.63;4810996;29;1064;-78
2021/11/07 15:32:24;;;;;;;;;;;;;;;22.08;31.84;98329.44;4811815;29;904;-78
2021/11/07 15:34:49;;;;;;;;;;;;;;;22.19;31.69;98321.50;4810429;29;977;-77
2021/11/07 15:37:23;;;;;;;;;;;;;;;22.24;31.57;98311.69;4812820;29;946;-78
2021/11/07 15:39:49;;;;;;;;;;;;;;;22.16;31.60;98330.09;4831514;29;1979;-78
2021/11/07 15:42:16;;;;;;;;;;;;;;;22.08;31.58;98329.44;4848332;29;1056;-78
2021/11/07 15:44:48;;;;;;;;;;;;;;;22.05;31.57;98328.28;4847406;29;1046;-77
2021/11/07 15:47:16;;;;;;;;;;;;;;;22.28;31.32;98332.25;4856878;29;912;-78
2021/11/07 15:49:47;;;;;;;;;;;;;;;22.24;31.20;98340.81;4911183;29;985;-78